Terminal Aerodrome Forecast
Issued by NWS

Home | Current Version | Previous Version | Text Only | Print | Product List | Glossary On
Versions: 1 2 3 4 5 6 7 8 9 10 11 12 13
000
FTUS43 KEAX 302300
TAFMKC
TAF
KMKC 302324Z 3100/3124 17005KT P6SM BKN120
     FM311000 18004KT P6SM VCSH BKN020
     FM311400 19007KT 6SM -SHRA BKN008
     FM311600 18009KT 5SM -RA OVC007=

USA.gov is the U.S. government's official web portal to all federal, state and local government web resources and services.